Time;durP1;ratioP1;P1;durP2;ratioP2;P2;SDS_P1;SDS_P2;PMS_P1;PMS_P2;Temp;Humidity;BMP_temperature;BMP_pressure;BME280_temperature;BME280_humidity;BME280_pressure;Samples;Min_cycle;Max_cycle;Signal;HPM_P1;HPM_P2
2021/10/23 00:00:25;;;;;;;0.70;0.60;;;9.60;99.90;;;;;;4989353;28;20176;-67
2021/10/23 00:02:51;;;;;;;5.07;1.20;;;9.70;99.90;;;;;;4987397;28;20517;-68
2021/10/23 00:05:16;;;;;;;0.70;0.50;;;9.70;99.90;;;;;;4987754;28;20610;-68
2021/10/23 00:07:42;;;;;;;3.37;1.90;;;9.70;99.90;;;;;;4988601;28;20180;-67
2021/10/23 00:10:08;;;;;;;1.47;0.60;;;9.70;99.90;;;;;;4987560;28;20183;-68
2021/10/23 00:12:34;;;;;;;1.00;0.90;;;9.70;99.90;;;;;;4985120;28;20204;-68
2021/10/23 00:14:59;;;;;;;0.70;0.50;;;9.70;99.90;;;;;;4987372;28;20483;-67
2021/10/23 00:17:25;;;;;;;1.93;1.73;;;9.60;99.90;;;;;;4976787;28;20847;-68
2021/10/23 00:19:50;;;;;;;2.40;1.53;;;9.60;99.90;;;;;;4979859;28;20182;-68
2021/10/23 00:22:16;;;;;;;1.80;0.80;;;9.60;99.90;;;;;;4988203;28;20181;-68
2021/10/23 00:24:42;;;;;;;1.43;1.07;;;9.60;99.90;;;;;;4982988;28;20173;-67
2021/10/23 00:27:07;;;;;;;2.97;1.67;;;9.60;99.90;;;;;;4977257;28;20208;-68
2021/10/23 00:29:33;;;;;;;0.70;0.60;;;9.60;99.90;;;;;;4982629;28;20195;-67
2021/10/23 00:31:59;;;;;;;0.70;0.60;;;9.60;99.90;;;;;;4996041;28;20235;-68
2021/10/23 00:34:24;;;;;;;1.00;0.90;;;9.60;99.90;;;;;;4983168;28;20193;-68
2021/10/23 00:36:50;;;;;;;2.10;1.07;;;9.60;99.90;;;;;;4990909;28;20326;-68
2021/10/23 00:39:15;;;;;;;1.37;1.00;;;9.60;99.90;;;;;;4993204;28;20177;-67
2021/10/23 00:41:41;;;;;;;3.43;1.33;;;9.70;99.90;;;;;;4987321;28;20188;-68
2021/10/23 00:44:26;;;;;;;1.07;0.97;;;9.70;99.90;;;;;;4984117;28;20173;-67
2021/10/23 00:46:51;;;;;;;4.20;2.30;;;9.70;99.90;;;;;;4989693;28;20452;-68
2021/10/23 00:49:17;;;;;;;1.30;1.20;;;9.80;99.90;;;;;;4980213;28;20464;-68
2021/10/23 00:51:42;;;;;;;1.07;0.90;;;9.70;99.90;;;;;;4982772;28;20224;-68
2021/10/23 00:54:09;;;;;;;1.63;1.10;;;9.80;99.90;;;;;;4990761;28;20181;-69
2021/10/23 00:56:35;;;;;;;0.70;0.60;;;9.80;99.90;;;;;;4994716;28;20251;-67
2021/10/23 00:59:01;;;;;;;3.77;1.90;;;9.70;99.90;;;;;;4986363;28;20516;-68
2021/10/23 01:01:27;;;;;;;2.40;2.20;;;9.70;99.90;;;;;;4986964;28;20520;-67
2021/10/23 01:03:52;;;;;;;0.70;0.60;;;9.70;99.90;;;;;;4975865;28;20197;-69
2021/10/23 01:06:19;;;;;;;3.57;3.37;;;9.70;99.90;;;;;;4983217;28;20838;-67
2021/10/23 01:08:45;;;;;;;0.80;0.80;;;9.70;99.90;;;;;;4985306;28;20516;-67
2021/10/23 01:11:11;;;;;;;1.07;0.83;;;9.70;99.90;;;;;;4992202;28;20466;-68
2021/10/23 01:13:36;;;;;;;11.70;3.60;;;9.70;99.90;;;;;;4994132;28;20181;-68
2021/10/23 01:16:02;;;;;;;1.67;1.37;;;9.80;99.90;;;;;;4981525;28;20227;-67
2021/10/23 01:18:28;;;;;;;2.50;0.80;;;9.80;99.90;;;;;;4993727;28;20176;-68
2021/10/23 01:20:53;;;;;;;0.70;0.50;;;9.90;99.90;;;;;;4990460;28;20177;-68
2021/10/23 01:23:19;;;;;;;0.90;0.80;;;9.90;99.90;;;;;;4989160;28;20177;-68
2021/10/23 01:25:44;;;;;;;1.93;1.83;;;9.80;99.90;;;;;;4981565;28;20197;-69
2021/10/23 01:28:10;;;;;;;0.70;0.50;;;9.80;99.90;;;;;;4984759;28;20215;-69
2021/10/23 01:30:36;;;;;;;0.70;0.57;;;9.80;99.90;;;;;;4987724;28;20211;-68
2021/10/23 01:33:01;;;;;;;3.30;1.37;;;9.80;99.90;;;;;;4982683;28;20542;-68
2021/10/23 01:35:28;;;;;;;0.90;0.60;;;9.90;99.90;;;;;;4984933;28;20376;-68
2021/10/23 01:37:55;;;;;;;0.70;0.50;;;9.80;99.90;;;;;;4978792;28;20655;-68
2021/10/23 01:40:24;;;;;;;0.83;0.83;;;9.90;99.90;;;;;;4991550;28;20790;-69
2021/10/23 01:42:50;;;;;;;0.70;0.50;;;9.90;99.90;;;;;;4984206;28;20526;-69
2021/10/23 01:45:15;;;;;;;0.80;0.60;;;9.90;99.90;;;;;;4990001;28;20510;-68
2021/10/23 01:47:43;;;;;;;0.70;0.60;;;9.80;99.90;;;;;;4979093;28;20234;-69
2021/10/23 01:50:28;;;;;;;3.10;1.77;;;9.80;99.90;;;;;;4991448;28;20177;-68
2021/10/23 01:52:55;;;;;;;0.80;0.73;;;9.80;99.90;;;;;;4987975;28;20428;-68
2021/10/23 01:55:21;;;;;;;1.20;0.80;;;9.70;99.90;;;;;;4985587;28;20570;-68
2021/10/23 01:57:47;;;;;;;1.53;1.43;;;9.70;99.90;;;;;;4980775;28;20511;-68
2021/10/23 02:00:15;;;;;;;2.60;1.40;;;9.70;99.90;;;;;;4987837;28;20188;-68
2021/10/23 02:02:41;;;;;;;0.70;0.50;;;9.60;99.90;;;;;;4980513;28;20442;-68
2021/10/23 02:05:07;;;;;;;0.70;0.50;;;9.60;99.90;;;;;;4974628;28;20476;-67
2021/10/23 02:07:33;;;;;;;4.73;1.20;;;9.50;99.90;;;;;;4995494;28;20419;-67
2021/10/23 02:09:59;;;;;;;2.40;2.10;;;9.60;99.90;;;;;;4984422;28;20415;-69
2021/10/23 02:12:25;;;;;;;1.10;1.00;;;9.60;99.90;;;;;;4982556;28;20208;-69
2021/10/23 02:14:50;;;;;;;0.80;0.80;;;9.60;99.90;;;;;;4979852;28;20174;-68
2021/10/23 02:17:16;;;;;;;0.70;0.50;;;9.60;99.90;;;;;;4978667;28;20851;-69
2021/10/23 02:19:41;;;;;;;1.17;1.07;;;9.60;99.90;;;;;;4978730;28;20169;-67
2021/10/23 02:22:07;;;;;;;0.70;0.60;;;9.70;99.90;;;;;;4974530;28;20647;-68
2021/10/23 02:24:33;;;;;;;0.83;0.80;;;9.60;99.90;;;;;;4984382;28;20682;-68
2021/10/23 02:26:58;;;;;;;0.93;0.90;;;9.60;99.90;;;;;;4978066;28;20671;-69
2021/10/23 02:29:24;;;;;;;1.17;1.07;;;9.60;99.90;;;;;;4980856;28;20176;-68
2021/10/23 02:31:50;;;;;;;0.80;0.70;;;9.60;99.90;;;;;;4977721;28;20212;-68
2021/10/23 02:34:15;;;;;;;0.70;0.60;;;9.60;99.90;;;;;;4991423;28;20715;-69
2021/10/23 02:36:41;;;;;;;1.17;0.80;;;9.60;99.90;;;;;;4992994;28;20519;-68
2021/10/23 02:39:07;;;;;;;0.70;0.60;;;9.60;99.90;;;;;;4992737;28;20197;-68
2021/10/23 02:41:32;;;;;;;1.00;1.00;;;9.50;99.90;;;;;;4991151;28;20185;-69
2021/10/23 02:43:59;;;;;;;2.63;2.43;;;9.60;99.90;;;;;;4988057;28;20235;-69
2021/10/23 02:46:25;;;;;;;2.23;1.77;;;9.60;99.90;;;;;;4982906;28;20193;-69
2021/10/23 02:48:50;;;;;;;2.50;1.33;;;9.50;99.90;;;;;;4987414;28;20427;-69
2021/10/23 02:51:16;;;;;;;1.37;0.67;;;9.60;99.90;;;;;;4987051;28;20533;-68
2021/10/23 02:53:42;;;;;;;0.70;0.50;;;9.50;99.90;;;;;;4979451;28;20403;-68
2021/10/23 02:56:08;;;;;;;0.80;0.73;;;9.50;99.90;;;;;;4980548;28;20689;-68
2021/10/23 02:58:33;;;;;;;0.70;0.50;;;9.50;99.90;;;;;;4979435;28;20185;-68
2021/10/23 03:00:59;;;;;;;0.70;0.50;;;9.60;99.90;;;;;;4980540;28;20530;-68
2021/10/23 03:03:24;;;;;;;0.97;0.87;;;9.50;99.90;;;;;;4988525;28;20267;-69
2021/10/23 03:05:50;;;;;;;1.23;1.13;;;9.50;99.90;;;;;;4985807;28;20203;-68
2021/10/23 03:08:15;;;;;;;0.97;0.97;;;9.40;99.90;;;;;;4990754;28;20185;-68
2021/10/23 03:10:42;;;;;;;1.27;1.17;;;9.40;99.90;;;;;;4977875;28;20209;-68
2021/10/23 03:13:07;;;;;;;1.53;1.20;;;9.40;99.90;;;;;;4988794;28;20165;-68
2021/10/23 03:15:33;;;;;;;3.33;1.60;;;9.40;99.90;;;;;;4990198;28;20964;-68
2021/10/23 03:17:59;;;;;;;0.70;0.70;;;9.50;99.90;;;;;;4989566;28;20177;-68
2021/10/23 03:20:25;;;;;;;0.80;0.67;;;9.50;99.90;;;;;;4975069;28;20437;-69
2021/10/23 03:22:50;;;;;;;2.03;1.93;;;9.50;99.90;;;;;;4977711;28;20186;-69
2021/10/23 03:25:16;;;;;;;1.83;1.57;;;9.50;99.90;;;;;;4973651;28;20631;-69
2021/10/23 03:27:41;;;;;;;0.70;0.50;;;9.60;99.90;;;;;;4984998;28;20236;-68
2021/10/23 03:30:08;;;;;;;3.47;3.17;;;9.50;99.90;;;;;;4978873;28;20173;-69
2021/10/23 03:32:33;;;;;;;2.37;2.10;;;9.60;99.90;;;;;;4990367;28;20208;-69
2021/10/23 03:35:00;;;;;;;0.70;0.60;;;9.60;99.90;;;;;;4980832;28;20443;-69
2021/10/23 03:37:30;;;;;;;1.40;1.30;;;9.70;99.90;;;;;;4986562;28;20179;-69
2021/10/23 03:39:57;;;;;;;0.70;0.50;;;9.70;99.90;;;;;;4983953;28;20483;-69
2021/10/23 03:42:23;;;;;;;2.30;2.10;;;9.60;99.90;;;;;;4982783;28;20937;-68
2021/10/23 03:44:49;;;;;;;3.30;2.90;;;9.60;99.90;;;;;;4984244;28;20539;-69
2021/10/23 03:47:16;;;;;;;1.07;0.87;;;9.70;99.90;;;;;;4990437;28;20254;-68
2021/10/23 03:49:43;;;;;;;3.03;2.80;;;9.70;99.90;;;;;;4977856;28;20180;-69
2021/10/23 03:52:08;;;;;;;1.90;1.80;;;9.80;99.90;;;;;;4986944;28;20517;-69
2021/10/23 03:54:34;;;;;;;0.77;0.77;;;9.90;99.90;;;;;;4989603;28;20428;-69
2021/10/23 03:56:59;;;;;;;1.67;1.33;;;9.90;99.90;;;;;;4991234;28;20347;-69
2021/10/23 03:59:25;;;;;;;0.90;0.77;;;9.90;99.90;;;;;;4986535;28;21233;-68
2021/10/23 04:01:50;;;;;;;0.90;0.90;;;9.90;99.90;;;;;;4978706;28;20260;-69
2021/10/23 04:04:17;;;;;;;0.90;0.70;;;9.90;99.90;;;;;;4979237;28;20189;-68
2021/10/23 04:06:42;;;;;;;1.30;1.20;;;9.90;99.90;;;;;;4972475;28;20212;-68
2021/10/23 04:09:08;;;;;;;3.07;2.63;;;9.90;99.90;;;;;;4972894;28;20405;-68
2021/10/23 04:11:33;;;;;;;2.30;1.80;;;10.00;99.90;;;;;;4987502;28;20667;-68
2021/10/23 04:13:59;;;;;;;0.70;0.50;;;9.90;99.90;;;;;;4977427;28;20196;-69
2021/10/23 04:16:24;;;;;;;2.53;2.40;;;9.90;99.90;;;;;;4981075;28;20202;-67
2021/10/23 04:18:50;;;;;;;2.90;2.20;;;9.90;99.90;;;;;;4981998;28;20176;-68
2021/10/23 04:21:16;;;;;;;0.70;0.70;;;9.90;99.90;;;;;;4990203;28;20259;-68
2021/10/23 04:23:42;;;;;;;1.00;0.77;;;9.90;99.90;;;;;;4991359;28;20181;-68
2021/10/23 04:26:08;;;;;;;1.10;1.00;;;9.90;99.90;;;;;;4990735;28;20204;-68
2021/10/23 04:28:34;;;;;;;1.67;1.20;;;9.90;99.90;;;;;;4990310;28;20181;-68
2021/10/23 04:30:59;;;;;;;1.00;0.90;;;9.90;99.90;;;;;;4982907;28;20555;-67
2021/10/23 04:33:25;;;;;;;3.07;1.57;;;9.90;99.90;;;;;;4988746;28;20197;-68
2021/10/23 04:35:50;;;;;;;0.70;0.50;;;9.90;99.90;;;;;;4982129;28;20197;-68
2021/10/23 04:38:17;;;;;;;0.70;0.60;;;9.90;99.90;;;;;;4990214;28;20661;-69
2021/10/23 04:40:43;;;;;;;0.83;0.83;;;9.90;99.90;;;;;;4984508;28;20664;-69
2021/10/23 04:43:09;;;;;;;2.97;1.80;;;9.90;99.90;;;;;;4990988;28;20427;-69
2021/10/23 04:45:35;;;;;;;0.77;0.63;;;9.90;99.90;;;;;;4978496;28;20444;-68
2021/10/23 04:48:00;;;;;;;1.03;0.93;;;9.80;99.90;;;;;;4987287;28;20169;-69
2021/10/23 04:50:27;;;;;;;1.23;1.10;;;9.80;99.90;;;;;;4993125;28;20601;-69
2021/10/23 04:52:52;;;;;;;1.33;1.23;;;9.80;99.90;;;;;;4991138;28;20232;-69
2021/10/23 04:55:18;;;;;;;1.27;1.20;;;9.80;99.90;;;;;;4986474;28;20471;-69
2021/10/23 04:57:44;;;;;;;2.53;2.33;;;9.80;99.90;;;;;;4985545;28;20186;-68
2021/10/23 05:00:09;;;;;;;1.00;1.00;;;9.80;99.90;;;;;;4983123;28;20184;-69
2021/10/23 05:02:35;;;;;;;1.47;1.37;;;9.80;99.90;;;;;;4979164;28;20177;-68
2021/10/23 05:05:00;;;;;;;1.20;1.10;;;9.70;99.90;;;;;;4994821;28;20527;-68
2021/10/23 05:07:26;;;;;;;0.70;0.60;;;9.70;99.90;;;;;;4989156;28;20209;-68
2021/10/23 05:09:52;;;;;;;2.07;1.97;;;9.70;99.90;;;;;;4988607;28;20682;-68
2021/10/23 05:12:17;;;;;;;1.00;0.70;;;9.70;99.90;;;;;;4988569;28;20205;-69
2021/10/23 05:14:43;;;;;;;1.20;1.07;;;9.70;99.90;;;;;;4988072;28;20231;-68
2021/10/23 05:17:08;;;;;;;1.07;0.97;;;9.60;99.90;;;;;;4984627;28;20209;-69
2021/10/23 05:19:34;;;;;;;2.13;2.03;;;9.50;99.90;;;;;;4983933;28;20665;-69
2021/10/23 05:21:59;;;;;;;0.93;0.83;;;9.60;99.90;;;;;;4984367;28;20177;-69
2021/10/23 05:24:27;;;;;;;11.30;1.70;;;9.60;99.90;;;;;;4984566;28;20181;-68
2021/10/23 05:26:52;;;;;;;0.97;0.97;;;9.50;99.90;;;;;;4993840;28;20635;-68
2021/10/23 05:29:18;;;;;;;2.00;0.93;;;9.50;99.90;;;;;;4990914;28;20486;-68
2021/10/23 05:31:44;;;;;;;1.10;1.00;;;9.50;99.90;;;;;;4981295;28;20202;-68
2021/10/23 05:34:09;;;;;;;1.90;1.80;;;9.50;99.90;;;;;;4982505;28;20213;-68
2021/10/23 05:36:35;;;;;;;0.70;0.50;;;9.50;99.90;;;;;;4977656;28;20240;-67
2021/10/23 05:39:00;;;;;;;1.10;0.97;;;9.50;99.90;;;;;;4978671;28;20174;-68
2021/10/23 05:41:26;;;;;;;1.07;0.97;;;9.50;99.90;;;;;;4984170;28;20181;-68
2021/10/23 05:43:52;;;;;;;1.93;1.30;;;9.40;99.90;;;;;;5008658;28;20271;-68
2021/10/23 05:46:18;;;;;;;1.60;1.50;;;9.40;99.90;;;;;;4985837;28;20202;-68
2021/10/23 05:48:43;;;;;;;1.20;1.10;;;9.40;99.90;;;;;;4978757;28;20178;-68
2021/10/23 05:51:09;;;;;;;1.37;1.10;;;9.50;99.90;;;;;;4982014;28;20456;-68
2021/10/23 05:53:34;;;;;;;1.73;1.63;;;9.40;99.90;;;;;;4991484;28;20220;-68
2021/10/23 05:56:00;;;;;;;3.80;1.00;;;9.40;99.90;;;;;;4988165;28;20200;-68
2021/10/23 05:58:29;;;;;;;1.53;1.43;;;9.30;99.90;;;;;;4983258;28;20177;-68
2021/10/23 06:00:58;;;;;;;5.90;1.03;;;9.40;99.90;;;;;;4990047;28;20173;-68
2021/10/23 06:03:25;;;;;;;9.13;2.27;;;9.40;99.90;;;;;;4993799;28;20784;-68
2021/10/23 06:05:51;;;;;;;3.23;2.20;;;9.40;99.90;;;;;;4991627;28;20855;-68
2021/10/23 06:08:17;;;;;;;1.17;1.00;;;9.40;99.90;;;;;;4984602;28;20516;-68
2021/10/23 06:10:43;;;;;;;1.37;1.27;;;9.50;99.90;;;;;;4975893;28;20177;-68
2021/10/23 06:13:10;;;;;;;1.10;0.90;;;9.50;99.90;;;;;;4984042;28;20180;-68
2021/10/23 06:15:36;;;;;;;2.10;1.47;;;9.50;99.90;;;;;;4982493;28;20823;-68
2021/10/23 06:18:03;;;;;;;0.77;0.67;;;9.60;99.90;;;;;;4987959;28;20432;-68
2021/10/23 06:20:28;;;;;;;1.17;1.07;;;9.60;99.90;;;;;;4990427;28;20175;-68
2021/10/23 06:22:54;;;;;;;1.73;1.00;;;9.60;99.90;;;;;;4990732;28;20436;-69
2021/10/23 06:25:21;;;;;;;1.27;0.77;;;9.60;99.90;;;;;;4980824;28;20557;-68
2021/10/23 06:27:47;;;;;;;2.70;1.23;;;9.70;99.90;;;;;;4984700;28;20613;-67
2021/10/23 06:30:13;;;;;;;3.20;1.47;;;9.70;99.90;;;;;;4989922;28;20423;-69
2021/10/23 06:32:50;;;;;;;2.30;1.70;;;9.70;99.90;;;;;;4980342;28;20455;-68
2021/10/23 06:35:16;;;;;;;1.87;1.73;;;9.70;99.90;;;;;;4989566;28;20497;-69
2021/10/23 06:37:41;;;;;;;3.17;1.60;;;9.80;99.90;;;;;;4993395;28;20424;-68
2021/10/23 06:40:08;;;;;;;3.70;2.40;;;9.90;99.90;;;;;;4990140;28;20416;-68
2021/10/23 06:42:34;;;;;;;2.27;2.17;;;9.90;99.90;;;;;;4987686;28;20669;-68
2021/10/23 06:44:59;;;;;;;3.00;2.80;;;9.90;99.90;;;;;;4987655;28;20524;-69
2021/10/23 06:47:25;;;;;;;2.30;1.33;;;9.90;99.90;;;;;;4988873;28;20180;-69
2021/10/23 06:49:51;;;;;;;1.40;0.97;;;10.00;99.90;;;;;;4980430;28;20284;-69
2021/10/23 06:52:17;;;;;;;1.00;0.80;;;10.10;99.90;;;;;;4983282;28;20192;-69
2021/10/23 06:54:43;;;;;;;1.63;1.00;;;10.10;99.90;;;;;;4993023;28;20425;-69
2021/10/23 06:57:09;;;;;;;0.80;0.70;;;10.10;99.90;;;;;;4983076;28;20461;-69
2021/10/23 06:59:34;;;;;;;1.27;0.83;;;10.20;99.90;;;;;;4983820;28;20482;-69
2021/10/23 07:02:00;;;;;;;1.33;1.23;;;10.20;99.90;;;;;;4983869;28;20184;-69
2021/10/23 07:04:25;;;;;;;1.17;1.03;;;10.20;99.90;;;;;;4990113;28;20173;-69
2021/10/23 07:06:51;;;;;;;0.80;0.57;;;10.30;99.90;;;;;;4985976;28;20204;-69
2021/10/23 07:09:18;;;;;;;0.73;0.63;;;10.40;99.90;;;;;;4984188;28;20719;-69
2021/10/23 07:11:44;;;;;;;1.00;0.87;;;10.40;99.90;;;;;;4978395;28;20200;-69
2021/10/23 07:14:09;;;;;;;1.53;1.43;;;10.40;99.90;;;;;;4981638;28;20858;-69
2021/10/23 07:16:35;;;;;;;3.67;3.43;;;10.50;99.90;;;;;;4990893;28;20204;-67
2021/10/23 07:19:00;;;;;;;1.47;1.37;;;10.50;99.90;;;;;;4986314;28;20529;-68
2021/10/23 07:21:26;;;;;;;1.43;1.27;;;10.60;99.90;;;;;;4980464;28;20178;-69
2021/10/23 07:23:53;;;;;;;2.20;1.80;;;10.60;99.90;;;;;;4992056;28;20180;-68
2021/10/23 07:26:20;;;;;;;1.20;0.70;;;10.60;99.90;;;;;;4982247;28;20248;-68
2021/10/23 07:28:45;;;;;;;1.70;1.60;;;10.60;99.90;;;;;;4980049;28;20535;-68
2021/10/23 07:31:11;;;;;;;0.70;0.50;;;10.60;99.90;;;;;;4983413;28;20898;-68
2021/10/23 07:33:37;;;;;;;2.30;2.20;;;10.70;99.90;;;;;;4982423;28;20243;-68
2021/10/23 07:36:02;;;;;;;3.87;1.63;;;10.60;99.90;;;;;;4983616;28;20550;-68
2021/10/23 07:38:28;;;;;;;0.90;0.80;;;10.70;99.90;;;;;;4980683;28;20446;-69
2021/10/23 07:40:53;;;;;;;0.87;0.70;;;10.80;99.90;;;;;;4988628;28;20231;-68
2021/10/23 07:43:20;;;;;;;1.53;1.43;;;10.80;99.90;;;;;;4981544;28;20272;-69
2021/10/23 07:45:48;;;;;;;1.07;1.07;;;10.90;99.90;;;;;;4975986;28;20227;-69
2021/10/23 07:48:18;;;;;;;0.90;0.60;;;10.90;99.90;;;;;;4979020;28;20440;-69
2021/10/23 07:50:48;;;;;;;0.80;0.80;;;11.00;99.90;;;;;;4982295;28;20432;-69
2021/10/23 07:53:19;;;;;;;1.77;1.67;;;11.10;99.90;;;;;;4980953;28;20921;-69
2021/10/23 07:55:44;;;;;;;2.50;2.27;;;11.20;99.90;;;;;;4990135;28;21068;-69
2021/10/23 07:58:10;;;;;;;5.63;0.90;;;11.30;99.90;;;;;;4984295;28;20440;-69
2021/10/23 08:00:36;;;;;;;0.83;0.83;;;11.40;99.90;;;;;;4991977;28;20231;-69
2021/10/23 08:03:02;;;;;;;1.27;0.90;;;11.50;99.90;;;;;;4983043;28;20677;-69
2021/10/23 08:05:33;;;;;;;4.50;2.77;;;11.60;99.90;;;;;;4989299;28;20197;-70
2021/10/23 08:07:59;;;;;;;6.00;1.83;;;11.60;99.90;;;;;;4985176;28;20467;-69
2021/10/23 08:10:26;;;;;;;1.73;1.57;;;11.70;99.90;;;;;;4980820;28;20535;-69
2021/10/23 08:12:56;;;;;;;1.17;0.77;;;11.80;99.90;;;;;;5006476;28;20193;-69
2021/10/23 08:15:21;;;;;;;0.90;0.70;;;11.90;99.90;;;;;;4980174;28;20461;-69
2021/10/23 08:17:47;;;;;;;1.30;0.80;;;11.90;99.90;;;;;;4972378;28;21019;-69
2021/10/23 08:20:13;;;;;;;1.73;1.10;;;12.00;99.90;;;;;;4975250;28;20523;-69
2021/10/23 08:22:39;;;;;;;1.43;1.30;;;12.00;99.90;;;;;;4983883;28;20173;-69
2021/10/23 08:25:07;;;;;;;4.77;4.50;;;12.00;99.90;;;;;;4980414;28;20181;-69
2021/10/23 08:27:35;;;;;;;0.80;0.70;;;11.90;99.90;;;;;;4993407;28;20517;-69
2021/10/23 08:30:05;;;;;;;2.13;1.30;;;12.00;99.90;;;;;;4982422;28;20440;-69
2021/10/23 08:32:31;;;;;;;1.63;1.53;;;11.90;99.90;;;;;;4983173;28;20468;-69
2021/10/23 08:34:57;;;;;;;0.70;0.60;;;11.90;99.90;;;;;;4978017;28;20446;-69
2021/10/23 08:37:23;;;;;;;0.90;0.77;;;11.90;99.90;;;;;;4977213;28;20170;-69
2021/10/23 08:39:49;;;;;;;1.13;1.03;;;11.80;99.90;;;;;;4984584;28;20452;-69
2021/10/23 08:42:15;;;;;;;1.33;0.90;;;11.80;99.90;;;;;;4976360;28;20185;-69
2021/10/23 08:44:42;;;;;;;0.90;0.90;;;11.90;99.90;;;;;;4982285;28;20439;-69
2021/10/23 08:47:08;;;;;;;0.90;0.80;;;12.10;99.90;;;;;;4991443;28;20554;-69
2021/10/23 08:49:35;;;;;;;2.97;1.90;;;12.20;99.90;;;;;;4994405;28;20527;-69
2021/10/23 08:52:02;;;;;;;0.70;0.63;;;12.30;99.90;;;;;;4992174;28;20229;-69
2021/10/23 08:54:29;;;;;;;1.03;0.80;;;12.20;99.90;;;;;;4995089;28;20782;-69
2021/10/23 08:56:55;;;;;;;1.77;1.67;;;12.20;99.90;;;;;;4991066;28;20825;-69
2021/10/23 08:59:20;;;;;;;11.17;3.53;;;12.20;99.90;;;;;;4990555;28;20432;-69
2021/10/23 09:01:47;;;;;;;4.77;1.50;;;12.30;99.90;;;;;;4984772;28;20191;-69
2021/10/23 09:04:13;;;;;;;0.80;0.67;;;12.40;99.90;;;;;;4993721;28;20574;-69
2021/10/23 09:06:40;;;;;;;0.80;0.73;;;12.60;99.90;;;;;;4994059;28;20490;-69
2021/10/23 09:09:13;;;;;;;1.13;0.97;;;12.60;99.90;;;;;;4980080;28;20540;-69
2021/10/23 09:11:46;;;;;;;2.10;1.90;;;12.80;99.90;;;;;;4992962;28;20481;-69
2021/10/23 09:14:31;;;;;;;1.77;1.67;;;13.00;99.90;;;;;;4993729;28;20934;-69
2021/10/23 09:17:11;;;;;;;0.80;0.73;;;13.00;99.90;;;;;;4984597;28;20478;-69
2021/10/23 09:19:39;;;;;;;1.73;0.80;;;13.10;99.90;;;;;;4975591;28;20452;-69
2021/10/23 09:22:07;;;;;;;2.40;1.40;;;13.20;99.90;;;;;;4983906;28;20438;-69
2021/10/23 09:24:33;;;;;;;1.93;1.53;;;13.30;99.90;;;;;;4993221;28;20967;-69
2021/10/23 09:27:00;;;;;;;1.37;1.23;;;13.30;99.90;;;;;;4984690;28;20463;-69
2021/10/23 09:29:28;;;;;;;2.50;1.27;;;13.40;99.90;;;;;;4984450;28;20795;-69
2021/10/23 09:31:55;;;;;;;0.90;0.80;;;13.30;99.90;;;;;;4987752;28;20463;-69
2021/10/23 09:34:23;;;;;;;0.70;0.60;;;13.30;99.90;;;;;;4978499;28;20455;-69
2021/10/23 09:36:55;;;;;;;2.17;1.00;;;13.20;99.90;;;;;;4974831;28;20441;-69
2021/10/23 09:39:32;;;;;;;3.03;2.77;;;13.20;99.90;;;;;;4985837;28;20830;-69
2021/10/23 09:42:17;;;;;;;1.17;0.80;;;13.20;99.90;;;;;;4980287;28;20417;-69
2021/10/23 09:45:03;;;;;;;1.00;0.90;;;13.20;99.90;;;;;;4984731;28;20518;-69
2021/10/23 09:47:43;;;;;;;0.93;0.83;;;13.20;99.90;;;;;;4990600;28;20945;-69
2021/10/23 09:50:14;;;;;;;1.50;0.97;;;13.30;99.90;;;;;;4991035;28;20431;-69
2021/10/23 09:53:05;;;;;;;2.70;1.50;;;13.40;99.90;;;;;;4990868;28;20460;-69
2021/10/23 09:55:48;;;;;;;1.23;1.13;;;13.50;99.90;;;;;;4983252;28;20459;-69
2021/10/23 09:58:18;;;;;;;1.67;1.10;;;13.50;99.90;;;;;;4987736;28;20456;-69
2021/10/23 10:00:46;;;;;;;1.53;1.43;;;13.60;99.90;;;;;;4987981;28;21114;-69
2021/10/23 10:03:12;;;;;;;1.00;0.87;;;13.60;99.90;;;;;;4985391;28;20460;-69
2021/10/23 10:05:38;;;;;;;1.13;1.03;;;13.50;99.90;;;;;;4978124;28;20904;-69
2021/10/23 10:08:14;;;;;;;1.03;0.93;;;13.40;99.90;;;;;;4992786;28;20209;-69
2021/10/23 10:10:46;;;;;;;3.03;1.47;;;13.60;99.90;;;;;;4993414;28;20176;-69
2021/10/23 10:13:15;;;;;;;1.97;1.20;;;13.60;99.90;;;;;;4978361;28;20469;-69
2021/10/23 10:15:45;;;;;;;0.70;0.50;;;13.60;99.90;;;;;;4986935;28;20494;-69
2021/10/23 10:18:17;;;;;;;1.00;0.90;;;13.70;99.90;;;;;;4979589;28;20448;-69
2021/10/23 10:20:45;;;;;;;0.70;0.60;;;13.70;99.90;;;;;;4989021;28;20416;-69
2021/10/23 10:23:15;;;;;;;2.07;1.87;;;13.70;99.90;;;;;;4986906;28;20428;-69
2021/10/23 10:25:41;;;;;;;1.27;1.17;;;13.80;99.90;;;;;;4990309;28;20448;-69
2021/10/23 10:28:09;;;;;;;1.10;1.00;;;13.80;99.90;;;;;;4993032;28;20451;-69
2021/10/23 10:30:36;;;;;;;3.60;1.90;;;13.70;99.90;;;;;;4989184;28;20165;-69
2021/10/23 10:33:32;;;;;;;1.37;0.93;;;13.60;99.90;;;;;;4992417;28;20535;-69
2021/10/23 10:36:30;;;;;;;0.97;0.90;;;13.50;99.90;;;;;;4973732;28;20448;-69
2021/10/23 10:39:39;;;;;;;2.17;1.13;;;13.60;99.90;;;;;;4989575;28;20432;-69
2021/10/23 10:42:45;;;;;;;0.83;0.60;;;13.50;99.90;;;;;;4991930;28;20514;-69
2021/10/23 10:45:30;;;;;;;0.90;0.60;;;13.50;99.90;;;;;;4986535;28;20454;-69
2021/10/23 10:48:23;;;;;;;1.00;1.00;;;13.40;99.90;;;;;;4989819;28;20442;-69
2021/10/23 10:50:55;;;;;;;1.67;1.37;;;13.40;99.90;;;;;;4986310;28;20468;-69
2021/10/23 10:53:40;;;;;;;3.40;3.13;;;13.40;99.90;;;;;;4983572;28;20428;-69
2021/10/23 10:56:17;;;;;;;0.70;0.60;;;13.40;99.90;;;;;;4982442;28;20464;-69
2021/10/23 10:58:47;;;;;;;10.00;1.20;;;13.40;99.90;;;;;;4980009;28;20980;-69
2021/10/23 11:01:30;;;;;;;1.13;0.90;;;13.40;99.90;;;;;;4980096;28;20427;-69
2021/10/23 11:03:58;;;;;;;1.70;0.70;;;13.40;99.90;;;;;;4992851;28;20416;-69
2021/10/23 11:06:39;;;;;;;0.80;0.70;;;13.40;99.90;;;;;;4986726;28;20459;-69
2021/10/23 11:09:07;;;;;;;0.70;0.60;;;13.50;99.90;;;;;;4988393;28;20483;-69
2021/10/23 11:11:45;;;;;;;3.17;0.80;;;13.40;99.90;;;;;;4986884;28;20462;-69
2021/10/23 11:14:36;;;;;;;0.70;0.50;;;13.40;99.90;;;;;;4973632;28;20420;-69
2021/10/23 11:17:03;;;;;;;0.70;0.50;;;13.50;99.90;;;;;;4985801;28;20624;-69
2021/10/23 11:19:48;;;;;;;2.03;0.90;;;13.50;99.90;;;;;;4991441;28;20412;-69
2021/10/23 11:22:13;;;;;;;2.00;1.27;;;13.60;99.90;;;;;;4974082;28;21020;-69
2021/10/23 11:24:47;;;;;;;0.80;0.63;;;13.70;99.90;;;;;;4974285;28;20432;-69
2021/10/23 11:27:43;;;;;;;0.87;0.87;;;13.80;99.90;;;;;;4990998;28;20214;-69
2021/10/23 11:30:28;;;;;;;2.60;2.40;;;13.90;99.90;;;;;;4982308;28;20440;-69
2021/10/23 11:33:04;;;;;;;0.77;0.63;;;14.00;99.90;;;;;;4977806;28;20487;-69
2021/10/23 11:35:49;;;;;;;2.43;0.77;;;14.10;99.90;;;;;;4978955;28;20553;-69
2021/10/23 11:38:24;;;;;;;0.80;0.80;;;14.10;99.90;;;;;;4989913;28;20447;-69
2021/10/23 11:40:54;;;;;;;1.87;1.10;;;14.20;99.90;;;;;;4982677;28;20605;-69
2021/10/23 11:43:20;;;;;;;0.70;0.50;;;14.30;99.90;;;;;;4976903;28;20427;-69
2021/10/23 11:45:46;;;;;;;1.10;1.00;;;14.30;99.90;;;;;;4982597;28;20894;-69
2021/10/23 11:48:12;;;;;;;0.70;0.70;;;14.40;99.90;;;;;;4982389;28;20647;-69
2021/10/23 11:50:46;;;;;;;1.63;1.53;;;14.40;99.90;;;;;;4987512;28;20432;-69
2021/10/23 11:53:18;;;;;;;1.67;1.20;;;14.50;99.90;;;;;;4976971;28;20576;-69
2021/10/23 11:55:47;;;;;;;0.70;0.50;;;14.50;99.90;;;;;;4987033;28;20825;-69
2021/10/23 11:58:18;;;;;;;1.40;1.10;;;14.60;99.90;;;;;;4985920;28;20437;-69
2021/10/23 12:00:56;;;;;;;1.57;1.00;;;14.60;99.90;;;;;;4983755;28;20503;-69
2021/10/23 12:03:44;;;;;;;0.70;0.50;;;14.50;99.90;;;;;;4985180;28;20895;-69
2021/10/23 12:06:21;;;;;;;0.70;0.70;;;14.50;99.90;;;;;;4984018;28;20447;-69
2021/10/23 12:09:13;;;;;;;1.33;1.23;;;14.50;99.90;;;;;;4992296;28;20735;-69
2021/10/23 12:11:39;;;;;;;2.10;1.73;;;14.50;99.90;;;;;;4994003;28;20493;-69
2021/10/23 12:14:09;;;;;;;0.93;0.60;;;14.70;99.90;;;;;;4986021;28;20895;-69
2021/10/23 12:16:35;;;;;;;0.90;0.70;;;14.50;99.90;;;;;;4993833;28;20322;-69
2021/10/23 12:19:02;;;;;;;0.80;0.60;;;14.40;99.90;;;;;;4982625;28;20507;-69
2021/10/23 12:21:35;;;;;;;1.10;1.00;;;14.50;99.90;;;;;;4986259;28;20184;-69
2021/10/23 12:24:12;;;;;;;1.23;1.13;;;14.60;99.90;;;;;;4976800;28;20417;-69
2021/10/23 12:26:38;;;;;;;0.80;0.80;;;14.70;99.90;;;;;;4977426;28;20468;-69
2021/10/23 12:29:05;;;;;;;2.30;2.00;;;14.60;99.90;;;;;;4981578;28;20442;-69
2021/10/23 12:31:55;;;;;;;0.80;0.70;;;14.60;99.90;;;;;;4985047;28;20398;-69
2021/10/23 12:34:24;;;;;;;0.70;0.50;;;14.70;99.90;;;;;;5007122;28;20463;-69
2021/10/23 12:36:51;;;;;;;0.70;0.50;;;14.70;99.90;;;;;;4980625;28;20455;-69
2021/10/23 12:39:28;;;;;;;1.17;1.07;;;14.60;99.90;;;;;;4992901;28;20428;-69
2021/10/23 12:41:55;;;;;;;0.70;0.60;;;14.50;99.90;;;;;;4982013;28;20434;-69
2021/10/23 12:44:24;;;;;;;0.70;0.50;;;14.70;99.90;;;;;;4986734;28;20536;-69
2021/10/23 12:46:53;;;;;;;0.80;0.60;;;14.70;99.90;;;;;;4990639;28;20490;-69
2021/10/23 12:49:20;;;;;;;0.70;0.50;;;14.80;99.90;;;;;;4997632;28;20535;-69
2021/10/23 12:51:46;;;;;;;0.70;0.50;;;14.70;99.90;;;;;;4985700;28;20459;-69
2021/10/23 12:54:16;;;;;;;0.70;0.50;;;14.80;99.90;;;;;;4983356;28;20797;-69
2021/10/23 12:56:43;;;;;;;0.70;0.50;;;14.80;99.90;;;;;;4990489;28;20224;-69
2021/10/23 12:59:09;;;;;;;1.33;0.90;;;14.90;99.90;;;;;;4987762;28;20436;-69